createdAt,value
2022-12-01T00:03:30.133Z,1.81
2022-12-01T00:08:34.570Z,1.83
2022-12-01T00:13:37.969Z,1.81
2022-12-01T00:18:40.960Z,1.76
2022-12-01T00:23:47.309Z,1.64
2022-12-01T00:28:56.876Z,1.45
2022-12-01T00:33:59.724Z,1.26
2022-12-01T00:39:02.755Z,1.05
2022-12-01T00:44:05.834Z,0.85
2022-12-01T00:49:12.796Z,0.64
2022-12-01T00:54:15.679Z,0.47
2022-12-01T00:59:18.669Z,0.26
2022-12-01T01:04:21.725Z,0.10
2022-12-01T01:09:25.996Z,-0.03
2022-12-01T01:14:28.945Z,-0.17
2022-12-01T01:19:31.850Z,-0.31
2022-12-01T01:24:34.973Z,-0.46
2022-12-01T01:29:37.924Z,-0.57
2022-12-01T01:34:40.824Z,-0.67
2022-12-01T01:39:43.650Z,-0.74
2022-12-01T01:44:58.592Z,-0.81
2022-12-01T01:50:09.175Z,-0.84
2022-12-01T01:55:13.747Z,-0.87
2022-12-01T02:00:20.514Z,-0.90
2022-12-01T02:05:31.269Z,-0.95
2022-12-01T02:11:14.349Z,-1.01
2022-12-01T02:16:55.536Z,-1.10
2022-12-01T02:22:41.960Z,-1.19
2022-12-01T02:28:14.568Z,-1.26
2022-12-01T02:33:31.569Z,-1.32
2022-12-01T02:38:40.074Z,-1.41
2022-12-01T02:44:30.443Z,-1.46
2022-12-01T02:49:40.331Z,-1.53
2022-12-01T02:54:48.480Z,-1.59
2022-12-01T02:59:55.307Z,-1.66
2022-12-01T03:05:09.716Z,-1.73
2022-12-01T03:10:43.757Z,-1.79
2022-12-01T03:16:20.304Z,-1.85
2022-12-01T03:21:36.403Z,-1.90
2022-12-01T03:26:44.231Z,-1.89
2022-12-01T03:32:01.797Z,-1.93
2022-12-01T03:37:21.832Z,-1.95
2022-12-01T03:42:36.904Z,-2.01
2022-12-01T03:47:40.557Z,-2.02
2022-12-01T03:53:06.663Z,-2.06
2022-12-01T03:58:23.576Z,-2.11
2022-12-01T04:03:27.042Z,-2.15
2022-12-01T04:08:30.779Z,-2.15
2022-12-01T04:13:34.128Z,-2.16
2022-12-01T04:18:37.023Z,-2.15
2022-12-01T04:23:58.088Z,-2.15
2022-12-01T04:29:04.173Z,-2.14
2022-12-01T04:34:09.419Z,-2.14
2022-12-01T04:39:12.303Z,-2.16
2022-12-01T04:44:15.472Z,-2.17
2022-12-01T04:49:19.357Z,-2.20
2022-12-01T04:54:22.422Z,-2.25
2022-12-01T04:59:25.267Z,-2.28
2022-12-01T05:04:28.047Z,-2.33
2022-12-01T05:09:30.946Z,-2.39
2022-12-01T05:14:33.813Z,-2.41
2022-12-01T05:19:54.972Z,-2.43
2022-12-01T05:24:57.724Z,-2.50
2022-12-01T05:30:00.590Z,-2.56
2022-12-01T05:35:03.570Z,-2.62
2022-12-01T05:40:07.583Z,-2.69
2022-12-01T05:45:10.922Z,-2.73
2022-12-01T05:50:14.005Z,-2.78
2022-12-01T05:55:17.258Z,-2.75
2022-12-01T06:00:20.882Z,-2.73
2022-12-01T06:05:24.089Z,-2.75
2022-12-01T06:10:27.084Z,-2.76
2022-12-01T06:15:30.605Z,-2.78
2022-12-01T06:20:33.392Z,-2.73
2022-12-01T06:25:36.327Z,-2.67
2022-12-01T06:30:39.220Z,-2.58
2022-12-01T06:35:42.192Z,-2.48
2022-12-01T06:40:45.154Z,-2.28
2022-12-01T06:45:47.974Z,-2.07
2022-12-01T06:50:50.912Z,-1.95
2022-12-01T06:55:54.360Z,-1.86
2022-12-01T07:00:58.917Z,-1.75
2022-12-01T07:06:03.472Z,-1.59
2022-12-01T07:11:12.539Z,-1.37
2022-12-01T07:16:16.196Z,-1.10
2022-12-01T07:21:19.220Z,-0.77
2022-12-01T07:26:22.723Z,-0.34
2022-12-01T07:31:25.642Z,-0.05
2022-12-01T07:36:28.526Z,0.22
2022-12-01T07:41:31.486Z,0.47
2022-12-01T07:46:34.205Z,0.74
2022-12-01T07:51:37.114Z,1.05
2022-12-01T07:56:40.965Z,1.36
2022-12-01T08:01:45.080Z,1.75
2022-12-01T08:06:48.076Z,2.19
2022-12-01T08:11:50.971Z,2.72
2022-12-01T08:16:54.293Z,3.23
2022-12-01T08:21:57.531Z,3.68
2022-12-01T08:27:00.473Z,4.05
2022-12-01T08:32:03.202Z,4.30
2022-12-01T08:37:06.149Z,4.49
2022-12-01T08:42:09.047Z,4.80
2022-12-01T08:47:15.730Z,4.87
2022-12-01T08:52:22.282Z,4.58
2022-12-01T08:57:25.111Z,4.22
2022-12-01T09:02:28.279Z,4.03
2022-12-01T09:07:31.448Z,4.49
2022-12-01T09:12:34.604Z,5.26
2022-12-01T09:17:37.383Z,6.07
2022-12-01T09:22:40.272Z,6.80
2022-12-01T09:27:43.446Z,7.38
2022-12-01T09:32:46.338Z,7.69
2022-12-01T09:37:49.319Z,7.67
2022-12-01T09:42:52.240Z,7.41
2022-12-01T09:47:59.767Z,6.96
2022-12-01T09:53:09.218Z,6.56
2022-12-01T09:58:23.083Z,6.24
2022-12-01T10:03:48.324Z,5.96
2022-12-01T10:09:16.617Z,5.77
2022-12-01T10:14:22.122Z,5.68
2022-12-01T10:19:52.520Z,5.61
2022-12-01T10:25:22.942Z,5.57
2022-12-01T10:30:26.359Z,5.59
2022-12-01T10:35:37.868Z,5.65
2022-12-01T10:40:42.534Z,6.01
2022-12-01T10:45:45.700Z,6.46
2022-12-01T10:50:57.524Z,6.75
2022-12-01T10:56:18.764Z,6.87
2022-12-01T11:01:34.707Z,7.02
2022-12-01T11:06:38.088Z,7.02
2022-12-01T11:11:41.321Z,7.01
2022-12-01T11:16:47.855Z,6.95
2022-12-01T11:22:19.973Z,6.85
2022-12-01T11:27:35.078Z,6.69
2022-12-01T11:32:40.112Z,6.54
2022-12-01T11:38:27.824Z,6.42
2022-12-01T11:43:35.909Z,6.22
2022-12-01T11:48:39.136Z,6.03
2022-12-01T11:53:44.308Z,5.91
2022-12-01T11:58:50.470Z,5.84
2022-12-01T12:04:27.371Z,5.88
2022-12-01T12:09:45.591Z,5.94
2022-12-01T12:15:54.105Z,6.01
2022-12-01T12:21:34.214Z,6.05
2022-12-01T12:26:59.112Z,6.00
2022-12-01T12:32:23.641Z,6.00
2022-12-01T12:38:09.158Z,5.96
2022-12-01T12:43:41.990Z,5.87
2022-12-01T12:49:19.689Z,5.87
2022-12-01T12:55:16.736Z,5.86
2022-12-01T13:00:26.029Z,5.85
2022-12-01T13:05:50.158Z,5.85
2022-12-01T13:10:58.171Z,5.85
2022-12-01T13:16:04.854Z,5.83
2022-12-01T13:21:16.027Z,5.76
2022-12-01T13:26:22.373Z,5.69
2022-12-01T13:31:25.679Z,5.62
2022-12-01T13:36:46.985Z,5.55
2022-12-01T13:42:20.860Z,5.44
2022-12-01T13:47:46.987Z,5.36
2022-12-01T13:52:50.923Z,5.26
2022-12-01T13:57:56.745Z,5.17
2022-12-01T14:03:19.533Z,5.02
2022-12-01T14:08:28.466Z,4.83
2022-12-01T14:13:48.589Z,4.64
2022-12-01T14:18:58.950Z,4.42
2022-12-01T14:24:06.602Z,4.17
2022-12-01T14:29:27.196Z,3.93
2022-12-01T14:34:34.953Z,3.72
2022-12-01T14:39:42.976Z,3.53
2022-12-01T14:44:49.725Z,3.35
2022-12-01T14:50:02.198Z,3.19
2022-12-01T14:55:21.996Z,3.00
2022-12-01T15:00:25.474Z,2.85
2022-12-01T15:05:31.444Z,2.72
2022-12-01T15:10:35.491Z,2.61
2022-12-01T15:15:49.460Z,2.52
2022-12-01T15:21:25.894Z,2.40
2022-12-01T15:26:39.318Z,2.29
2022-12-01T15:31:47.189Z,2.25
2022-12-01T15:36:52.505Z,2.23
2022-12-01T15:41:55.785Z,2.17
2022-12-01T15:46:58.767Z,2.07
2022-12-01T15:52:12.617Z,1.95
2022-12-01T15:57:21.890Z,1.85
2022-12-01T16:02:33.560Z,1.81
2022-12-01T16:08:11.996Z,1.78
2022-12-01T16:13:48.153Z,1.74
2022-12-01T16:19:02.373Z,1.73
2022-12-01T16:24:06.711Z,1.67
2022-12-01T16:29:20.879Z,1.63
2022-12-01T16:34:45.333Z,1.60
2022-12-01T16:39:48.529Z,1.59
2022-12-01T16:44:52.884Z,1.59
2022-12-01T16:49:56.032Z,1.54
2022-12-01T16:54:58.970Z,1.48
2022-12-01T17:00:02.233Z,1.39
2022-12-01T17:05:10.382Z,1.28
2022-12-01T17:10:13.597Z,1.19
2022-12-01T17:15:17.012Z,1.11
2022-12-01T17:20:20.142Z,0.97
2022-12-01T17:25:23.064Z,0.86
2022-12-01T17:30:25.980Z,0.75
2022-12-01T17:35:29.268Z,0.64
2022-12-01T17:40:32.340Z,0.50
2022-12-01T17:45:35.234Z,0.40
2022-12-01T17:50:38.362Z,0.30
2022-12-01T17:55:41.071Z,0.19
2022-12-01T18:00:43.937Z,0.10
2022-12-01T18:05:57.198Z,0.01
2022-12-01T18:11:07.904Z,-0.10
2022-12-01T18:16:18.483Z,-0.20
2022-12-01T18:21:23.897Z,-0.29
2022-12-01T18:26:29.661Z,-0.35
2022-12-01T18:31:33.977Z,-0.40
2022-12-01T18:36:39.989Z,-0.45
2022-12-01T18:41:43.164Z,-0.49
2022-12-01T18:46:46.764Z,-0.53
2022-12-01T18:51:49.816Z,-0.53
2022-12-01T18:56:53.332Z,-0.52
2022-12-01T19:01:56.296Z,-0.49
2022-12-01T19:06:59.183Z,-0.48
2022-12-01T19:12:02.046Z,-0.48
2022-12-01T19:17:04.947Z,-0.48
2022-12-01T19:22:07.984Z,-0.48
2022-12-01T19:27:10.870Z,-0.48
2022-12-01T19:32:16.163Z,-0.49
2022-12-01T19:37:20.049Z,-0.50
2022-12-01T19:42:23.014Z,-0.51
2022-12-01T19:47:25.844Z,-0.55
2022-12-01T19:52:31.104Z,-0.60
2022-12-01T19:57:34.089Z,-0.61
2022-12-01T20:02:36.972Z,-0.65
2022-12-01T20:07:40.359Z,-0.69
2022-12-01T20:12:43.506Z,-0.73
2022-12-01T20:17:46.541Z,-0.77
2022-12-01T20:22:49.494Z,-0.83
2022-12-01T20:27:52.828Z,-0.88
2022-12-01T20:32:55.868Z,-0.95
2022-12-01T20:37:58.871Z,-1.00
2022-12-01T20:43:01.786Z,-1.11
2022-12-01T20:48:05.040Z,-1.18
2022-12-01T20:53:08.239Z,-1.26
2022-12-01T20:58:11.768Z,-1.32
2022-12-01T21:03:15.311Z,-1.37
2022-12-01T21:08:18.572Z,-1.43
2022-12-01T21:13:39.182Z,-1.47
2022-12-01T21:19:00.365Z,-1.52
2022-12-01T21:24:16.727Z,-1.57
2022-12-01T21:29:27.828Z,-1.64
2022-12-01T21:34:34.917Z,-1.68
2022-12-01T21:39:39.263Z,-1.75
2022-12-01T21:44:42.751Z,-1.82
2022-12-01T21:49:47.710Z,-1.90
2022-12-01T21:54:51.423Z,-1.98
2022-12-01T22:00:08.681Z,-2.05
2022-12-01T22:05:39.202Z,-2.12
2022-12-01T22:11:06.454Z,-2.20
2022-12-01T22:16:14.348Z,-2.26
2022-12-01T22:21:23.647Z,-2.30
2022-12-01T22:26:26.848Z,-2.34
2022-12-01T22:31:31.451Z,-2.36
2022-12-01T22:36:35.044Z,-2.38
2022-12-01T22:41:38.144Z,-2.42
2022-12-01T22:46:41.418Z,-2.45
2022-12-01T22:51:58.245Z,-2.48
2022-12-01T22:57:37.197Z,-2.47
2022-12-01T23:02:40.107Z,-2.49
2022-12-01T23:07:43.670Z,-2.49
2022-12-01T23:12:50.269Z,-2.50
2022-12-01T23:17:53.508Z,-2.45
2022-12-01T23:22:59.459Z,-2.40
2022-12-01T23:28:08.006Z,-2.30
2022-12-01T23:33:13.715Z,-2.14
2022-12-01T23:38:22.216Z,-2.02
2022-12-01T23:43:29.821Z,-1.91
2022-12-01T23:49:12.693Z,-1.81
2022-12-01T23:54:28.232Z,-1.70
2022-12-01T23:59:32.106Z,-1.59
